createdAt,value
2018-05-25T00:02:12.687Z,45.90
2018-05-25T00:04:41.015Z,45.33
2018-05-25T00:07:09.380Z,47.23
2018-05-25T00:09:37.692Z,43.40
2018-05-25T00:12:06.789Z,49.20
2018-05-25T00:14:35.854Z,46.77
2018-05-25T00:17:04.154Z,46.97
2018-05-25T00:19:33.298Z,46.47
2018-05-25T00:22:01.805Z,49.67
2018-05-25T00:24:30.258Z,49.03
2018-05-25T00:26:58.594Z,50.87
2018-05-25T00:29:27.935Z,54.20
2018-05-25T00:31:56.231Z,51.50
2018-05-25T00:34:24.949Z,50.60
2018-05-25T00:36:53.262Z,49.03
2018-05-25T00:39:21.576Z,47.03
2018-05-25T00:41:49.915Z,48.73
2018-05-25T00:44:18.221Z,49.17
2018-05-25T00:46:46.541Z,50.07
2018-05-25T00:49:14.874Z,51.73
2018-05-25T00:51:43.197Z,54.97
2018-05-25T00:54:11.510Z,57.40
2018-05-25T00:56:39.828Z,55.03
2018-05-25T00:59:08.225Z,59.43
2018-05-25T01:01:36.521Z,58.97
2018-05-25T01:04:05.596Z,61.20
2018-05-25T01:06:33.890Z,60.60
2018-05-25T01:09:02.944Z,61.57
2018-05-25T01:11:31.253Z,62.40
2018-05-25T01:13:59.537Z,60.43
2018-05-25T01:16:28.910Z,59.87
2018-05-25T01:18:57.204Z,56.30
2018-05-25T01:21:25.504Z,55.83
2018-05-25T01:23:54.569Z,55.30
2018-05-25T01:26:22.873Z,51.43
2018-05-25T01:28:51.918Z,49.93
2018-05-25T01:31:20.895Z,48.87
2018-05-25T01:33:49.234Z,46.93
2018-05-25T01:36:18.287Z,46.30
2018-05-25T01:38:46.597Z,44.27
2018-05-25T01:41:14.912Z,44.13
2018-05-25T01:43:43.239Z,45.47
2018-05-25T01:46:11.556Z,45.50
2018-05-25T01:48:40.691Z,41.43
2018-05-25T01:51:09.718Z,40.43
2018-05-25T01:53:38.127Z,40.77
2018-05-25T01:56:07.266Z,38.87
2018-05-25T01:58:36.402Z,41.83
2018-05-25T02:01:05.538Z,37.30
2018-05-25T02:03:34.307Z,37.57
2018-05-25T02:06:02.735Z,35.80
2018-05-25T02:08:32.180Z,34.73
2018-05-25T02:11:01.264Z,34.90
2018-05-25T02:13:29.581Z,34.50
2018-05-25T02:15:58.095Z,38.70
2018-05-25T02:18:26.480Z,36.50
2018-05-25T02:20:55.569Z,38.33
2018-05-25T02:23:23.896Z,38.67
2018-05-25T02:25:52.989Z,38.70
2018-05-25T02:28:22.167Z,39.30
2018-05-25T02:30:50.518Z,37.30
2018-05-25T02:33:18.837Z,35.63
2018-05-25T02:35:47.934Z,38.17
2018-05-25T02:38:17.005Z,39.27
2018-05-25T02:40:45.316Z,38.37
2018-05-25T02:43:14.412Z,37.53
2018-05-25T02:45:43.473Z,39.53
2018-05-25T02:48:11.768Z,43.80
2018-05-25T02:50:40.202Z,41.83
2018-05-25T02:53:08.503Z,43.43
2018-05-25T02:55:37.264Z,44.40
2018-05-25T02:58:05.550Z,44.67
2018-05-25T03:00:33.885Z,45.43
2018-05-25T03:03:02.955Z,44.97
2018-05-25T03:05:31.273Z,44.77
2018-05-25T03:08:00.337Z,46.33
2018-05-25T03:10:29.432Z,47.37
2018-05-25T03:12:57.720Z,47.13
2018-05-25T03:15:26.800Z,47.23
2018-05-25T03:17:55.089Z,45.97
2018-05-25T03:20:24.196Z,45.60
2018-05-25T03:22:53.340Z,46.87
2018-05-25T03:25:21.653Z,44.53
2018-05-25T03:27:49.974Z,45.73
2018-05-25T03:30:18.290Z,43.17
2018-05-25T03:32:46.606Z,43.97
2018-05-25T03:35:15.654Z,45.40
2018-05-25T03:37:44.776Z,40.23
2018-05-25T03:40:13.098Z,40.43
2018-05-25T03:42:41.830Z,43.47
2018-05-25T03:45:10.148Z,44.23
2018-05-25T03:47:39.358Z,43.20
2018-05-25T03:50:07.810Z,42.67
2018-05-25T03:52:36.937Z,45.10
2018-05-25T03:55:05.284Z,47.27
2018-05-25T03:57:34.500Z,47.00
2018-05-25T04:00:21.331Z,47.57
2018-05-25T04:02:49.661Z,48.93
2018-05-25T04:05:18.017Z,45.87
2018-05-25T04:07:46.428Z,46.50
2018-05-25T04:10:14.853Z,45.57
2018-05-25T04:12:44.448Z,42.53
2018-05-25T04:15:12.747Z,41.37
2018-05-25T04:17:41.043Z,40.23
2018-05-25T04:20:09.356Z,42.03
2018-05-25T04:22:38.410Z,40.50
2018-05-25T04:25:06.751Z,40.67
2018-05-25T04:27:35.045Z,40.00
2018-05-25T04:30:03.394Z,36.97
2018-05-25T04:32:32.456Z,37.53
2018-05-25T04:35:00.785Z,38.30
2018-05-25T04:37:29.103Z,36.63
2018-05-25T04:39:57.410Z,37.57
2018-05-25T04:42:26.476Z,37.57
2018-05-25T04:44:54.772Z,39.77
2018-05-25T04:47:23.200Z,37.97
2018-05-25T04:49:51.481Z,38.43
2018-05-25T04:52:19.811Z,37.07
2018-05-25T04:54:48.076Z,37.47
2018-05-25T04:57:16.376Z,35.00
2018-05-25T04:59:45.731Z,34.80
2018-05-25T05:02:14.052Z,34.87
2018-05-25T05:04:43.071Z,34.60
2018-05-25T05:07:11.394Z,35.07
2018-05-25T05:09:39.716Z,35.33
2018-05-25T05:12:08.862Z,33.93
2018-05-25T05:14:37.288Z,32.33
2018-05-25T05:17:05.612Z,30.83
2018-05-25T05:19:33.990Z,30.90
2018-05-25T05:22:02.276Z,29.20
2018-05-25T05:24:30.561Z,30.17
2018-05-25T05:26:59.630Z,28.97
2018-05-25T05:29:27.921Z,28.40
2018-05-25T05:31:56.248Z,28.30
2018-05-25T05:34:25.303Z,27.10
2018-05-25T05:36:53.608Z,26.33
2018-05-25T05:39:21.943Z,26.57
2018-05-25T05:41:50.535Z,24.97
2018-05-25T05:44:18.883Z,26.00
2018-05-25T05:46:47.192Z,24.93
2018-05-25T05:49:15.500Z,23.90
2018-05-25T05:51:43.832Z,23.60
2018-05-25T05:54:12.146Z,23.20
2018-05-25T05:56:40.601Z,23.50
2018-05-25T05:59:08.897Z,22.67
2018-05-25T06:01:37.220Z,23.47
2018-05-25T06:04:06.450Z,22.73
2018-05-25T06:06:34.745Z,23.70
2018-05-25T06:09:03.091Z,23.90
2018-05-25T06:11:31.389Z,23.33
2018-05-25T06:13:59.784Z,22.17
2018-05-25T06:16:28.077Z,22.37
2018-05-25T06:18:56.394Z,21.83
2018-05-25T06:21:24.669Z,22.03
2018-05-25T06:23:53.121Z,20.33
2018-05-25T06:26:21.421Z,22.20
2018-05-25T06:28:50.505Z,21.80
2018-05-25T06:31:19.605Z,20.97
2018-05-25T06:33:48.692Z,21.93
2018-05-25T06:36:16.991Z,21.30
2018-05-25T06:38:46.125Z,20.10
2018-05-25T06:41:14.443Z,21.23
2018-05-25T06:43:42.745Z,20.83
2018-05-25T06:46:12.275Z,20.83
2018-05-25T06:48:40.670Z,19.40
2018-05-25T06:51:08.997Z,18.43
2018-05-25T06:53:38.132Z,19.17
2018-05-25T06:56:06.499Z,18.63
2018-05-25T06:58:34.782Z,17.00
2018-05-25T07:01:03.132Z,16.03
2018-05-25T07:03:32.166Z,15.90
2018-05-25T07:06:00.467Z,13.70
2018-05-25T07:08:28.820Z,12.97
2018-05-25T07:10:57.413Z,14.20
2018-05-25T07:13:25.732Z,14.00
2018-05-25T07:15:54.793Z,13.77
2018-05-25T07:18:23.117Z,13.50
2018-05-25T07:20:52.253Z,14.67
2018-05-25T07:23:20.532Z,13.87
2018-05-25T07:25:48.841Z,13.63
2018-05-25T07:28:17.154Z,12.23
2018-05-25T07:30:46.330Z,12.50
2018-05-25T07:33:14.647Z,11.63
2018-05-25T07:35:42.941Z,11.30
2018-05-25T07:38:11.273Z,11.40
2018-05-25T07:40:40.322Z,11.23
2018-05-25T07:43:08.640Z,11.57
2018-05-25T07:45:38.456Z,12.03
2018-05-25T07:48:07.553Z,12.00
2018-05-25T07:50:36.753Z,12.83
2018-05-25T07:53:05.804Z,12.53
2018-05-25T07:55:34.160Z,12.17
2018-05-25T07:58:02.520Z,12.70
2018-05-25T08:00:31.637Z,12.43
2018-05-25T08:03:00.239Z,12.07
2018-05-25T08:05:28.537Z,11.90
2018-05-25T08:07:56.799Z,12.20
2018-05-25T08:10:25.150Z,11.83
2018-05-25T08:12:53.434Z,11.93
2018-05-25T08:15:21.773Z,10.93
2018-05-25T08:17:50.844Z,10.87
2018-05-25T08:20:19.160Z,10.30
2018-05-25T08:22:48.254Z,9.47
2018-05-25T08:25:17.335Z,9.03
2018-05-25T08:27:46.382Z,9.40
2018-05-25T08:30:14.756Z,8.70
2018-05-25T08:32:43.085Z,10.07
2018-05-25T08:35:12.205Z,9.87
2018-05-25T08:37:41.365Z,10.20
2018-05-25T08:40:09.650Z,9.80
2018-05-25T08:42:37.985Z,10.00
2018-05-25T08:45:06.628Z,10.03
2018-05-25T08:47:35.757Z,9.30
2018-05-25T08:50:04.082Z,9.80
2018-05-25T08:52:32.375Z,9.73
2018-05-25T08:55:01.468Z,9.57
2018-05-25T08:57:29.781Z,9.17
2018-05-25T08:59:58.065Z,9.67
2018-05-25T09:02:26.542Z,8.87
2018-05-25T09:04:54.830Z,8.70
2018-05-25T09:07:23.122Z,8.43
2018-05-25T09:09:51.437Z,7.63
2018-05-25T09:12:20.532Z,8.43
2018-05-25T09:14:49.615Z,8.50
2018-05-25T09:17:17.933Z,7.87
2018-05-25T09:19:46.252Z,7.97
2018-05-25T09:22:14.641Z,8.30
2018-05-25T09:24:42.921Z,7.67
2018-05-25T09:27:11.225Z,8.00
2018-05-25T09:29:40.365Z,7.60
2018-05-25T09:32:08.992Z,8.37
2018-05-25T09:34:38.077Z,7.47
2018-05-25T09:37:06.361Z,7.23
2018-05-25T09:39:34.674Z,6.63
2018-05-25T09:42:03.054Z,7.10
2018-05-25T09:44:31.302Z,6.63
2018-05-25T09:46:59.623Z,6.70
2018-05-25T09:49:28.138Z,6.30
2018-05-25T09:51:56.482Z,6.90
2018-05-25T09:54:24.998Z,6.63
2018-05-25T09:57:01.097Z,6.43
2018-05-25T09:59:30.200Z,6.60
2018-05-25T10:01:59.258Z,7.00
2018-05-25T10:04:27.630Z,6.77
2018-05-25T10:06:55.915Z,7.17
2018-05-25T10:09:24.229Z,6.63
2018-05-25T10:11:53.265Z,7.00
2018-05-25T10:14:21.564Z,6.83
2018-05-25T10:16:49.878Z,6.40
2018-05-25T10:19:18.165Z,7.03
2018-05-25T10:21:46.526Z,7.13
2018-05-25T10:24:15.646Z,7.40
2018-05-25T10:26:43.940Z,6.77
2018-05-25T10:29:12.461Z,6.97
2018-05-25T10:31:40.792Z,6.90
2018-05-25T10:34:09.197Z,6.77
2018-05-25T10:36:37.546Z,7.10
2018-05-25T10:39:06.765Z,6.63
2018-05-25T10:41:35.132Z,5.87
2018-05-25T10:44:03.563Z,6.43
2018-05-25T10:46:32.014Z,6.07
2018-05-25T10:49:00.288Z,5.93
2018-05-25T10:51:28.585Z,5.60
2018-05-25T10:53:56.912Z,5.57
2018-05-25T10:56:25.212Z,5.83
2018-05-25T10:58:53.543Z,5.70
2018-05-25T11:01:22.718Z,6.20
2018-05-25T11:03:51.048Z,7.10
2018-05-25T11:06:19.341Z,6.50
2018-05-25T11:08:47.647Z,6.23
2018-05-25T11:11:16.071Z,6.80
2018-05-25T11:13:44.381Z,6.53
2018-05-25T11:16:12.665Z,6.60
2018-05-25T11:18:41.017Z,5.90
2018-05-25T11:21:09.290Z,6.40
2018-05-25T11:23:37.674Z,6.40
2018-05-25T11:26:06.021Z,6.20
2018-05-25T11:28:35.117Z,6.57
2018-05-25T11:31:04.195Z,6.03
2018-05-25T11:33:32.476Z,6.27
2018-05-25T11:36:00.818Z,6.53
2018-05-25T11:38:29.138Z,6.20
2018-05-25T11:40:57.434Z,6.33
2018-05-25T11:43:26.524Z,5.90
2018-05-25T11:45:55.563Z,5.93
2018-05-25T11:48:23.857Z,6.13
2018-05-25T11:50:52.156Z,6.40
2018-05-25T11:53:20.918Z,6.17
2018-05-25T11:55:49.203Z,6.60
2018-05-25T11:58:17.530Z,6.63
2018-05-25T12:00:45.836Z,6.97
2018-05-25T12:03:14.164Z,6.43
2018-05-25T12:05:43.234Z,6.73
2018-05-25T12:08:11.509Z,6.97
2018-05-25T12:10:39.839Z,7.07
2018-05-25T12:13:08.978Z,7.30
2018-05-25T12:15:37.285Z,7.57
2018-05-25T12:18:05.644Z,7.40
2018-05-25T12:20:34.065Z,7.00
2018-05-25T12:23:03.127Z,7.50
2018-05-25T12:25:32.962Z,8.47
2018-05-25T12:28:02.082Z,9.27
2018-05-25T12:30:30.414Z,9.70
2018-05-25T12:32:58.724Z,10.33
2018-05-25T12:35:27.015Z,10.30
2018-05-25T12:37:55.334Z,9.93
2018-05-25T12:40:23.954Z,10.60
2018-05-25T12:42:53.045Z,9.43
2018-05-25T12:45:21.344Z,9.87
2018-05-25T12:47:49.680Z,9.63
2018-05-25T12:50:18.023Z,9.67
2018-05-25T12:52:46.440Z,9.23
2018-05-25T12:55:14.739Z,9.60
2018-05-25T12:57:43.050Z,9.20
2018-05-25T13:00:11.486Z,9.07
2018-05-25T13:02:39.811Z,9.23
2018-05-25T13:05:08.097Z,9.30
2018-05-25T13:07:36.443Z,9.60
2018-05-25T13:10:05.490Z,9.10
2018-05-25T13:12:33.789Z,10.13
2018-05-25T13:15:02.139Z,9.47
2018-05-25T13:17:30.436Z,8.07
2018-05-25T13:19:59.575Z,7.73
2018-05-25T13:22:28.677Z,7.90
2018-05-25T13:24:57.029Z,7.53
2018-05-25T13:27:25.390Z,6.67
2018-05-25T13:29:54.563Z,7.60
2018-05-25T13:32:22.887Z,7.13
2018-05-25T13:34:51.955Z,6.20
2018-05-25T13:37:20.262Z,6.03
2018-05-25T13:39:49.312Z,5.93
2018-05-25T13:42:17.613Z,5.90
2018-05-25T13:44:45.933Z,5.80
2018-05-25T13:47:14.230Z,6.23
2018-05-25T13:49:42.721Z,5.50
2018-05-25T13:52:11.011Z,5.93
2018-05-25T13:54:39.339Z,5.47
2018-05-25T13:57:07.634Z,5.20
2018-05-25T13:59:36.096Z,5.80
2018-05-25T14:02:05.135Z,6.40
2018-05-25T14:04:33.526Z,6.03
2018-05-25T14:07:01.962Z,5.80
2018-05-25T14:09:31.440Z,6.43
2018-05-25T14:11:59.849Z,6.00
2018-05-25T14:14:28.244Z,5.67
2018-05-25T14:16:56.568Z,6.47
2018-05-25T14:19:24.879Z,6.50
2018-05-25T14:21:53.903Z,5.73
2018-05-25T14:24:22.180Z,6.23
2018-05-25T14:26:50.506Z,5.93
2018-05-25T14:29:19.601Z,5.40
2018-05-25T14:31:48.653Z,5.50
2018-05-25T14:34:17.029Z,6.23
2018-05-25T14:36:45.325Z,5.57
2018-05-25T14:39:13.691Z,5.30
2018-05-25T14:41:42.017Z,5.80
2018-05-25T14:44:11.105Z,5.60
2018-05-25T14:46:40.205Z,5.80
2018-05-25T14:49:08.551Z,5.43
2018-05-25T14:51:36.864Z,6.20
2018-05-25T14:54:05.897Z,5.77
2018-05-25T14:56:34.425Z,6.13
2018-05-25T14:59:03.531Z,5.87
2018-05-25T15:01:31.855Z,7.00
2018-05-25T15:04:00.155Z,7.27
2018-05-25T15:06:28.438Z,6.37
2018-05-25T15:08:56.723Z,6.50
2018-05-25T15:11:25.039Z,6.40
2018-05-25T15:13:53.358Z,7.17
2018-05-25T15:16:21.661Z,6.97
2018-05-25T15:18:49.991Z,7.13
2018-05-25T15:21:18.409Z,7.50
2018-05-25T15:23:47.453Z,7.23
2018-05-25T15:26:15.757Z,6.97
2018-05-25T15:28:44.073Z,7.17
2018-05-25T15:31:12.422Z,7.73
2018-05-25T15:33:40.746Z,7.20
2018-05-25T15:36:09.793Z,7.13
2018-05-25T15:38:38.376Z,7.53
2018-05-25T15:41:06.938Z,7.50
2018-05-25T15:43:35.257Z,8.57
2018-05-25T15:46:03.584Z,7.67
2018-05-25T15:48:31.902Z,7.17
2018-05-25T15:51:00.263Z,7.20
2018-05-25T15:53:28.624Z,6.70
2018-05-25T15:55:56.925Z,6.20
2018-05-25T15:58:25.204Z,6.10
2018-05-25T16:00:53.475Z,5.90
2018-05-25T16:03:21.849Z,6.13
2018-05-25T16:05:50.133Z,5.67
2018-05-25T16:08:18.457Z,6.00
2018-05-25T16:10:46.772Z,6.30
2018-05-25T16:13:15.074Z,6.30
2018-05-25T16:15:43.401Z,6.27
2018-05-25T16:18:12.488Z,6.23
2018-05-25T16:20:40.998Z,6.57
2018-05-25T16:23:09.289Z,6.50
2018-05-25T16:25:37.607Z,6.90
2018-05-25T16:28:05.932Z,6.80
2018-05-25T16:30:34.229Z,7.13
2018-05-25T16:33:02.534Z,6.80
2018-05-25T16:35:30.931Z,7.37
2018-05-25T16:37:59.212Z,7.50
2018-05-25T16:40:27.547Z,7.07
2018-05-25T16:42:55.865Z,6.57
2018-05-25T16:45:24.175Z,7.00
2018-05-25T16:47:53.240Z,7.37
2018-05-25T16:50:21.565Z,7.87
2018-05-25T16:52:49.970Z,7.30
2018-05-25T16:55:18.256Z,7.47
2018-05-25T16:57:46.581Z,8.90
2018-05-25T17:00:14.930Z,9.43
2018-05-25T17:02:43.355Z,8.03
2018-05-25T17:05:11.756Z,9.13
2018-05-25T17:07:40.046Z,8.47
2018-05-25T17:10:08.396Z,8.30
2018-05-25T17:12:36.710Z,8.97
2018-05-25T17:15:05.005Z,8.30
2018-05-25T17:17:34.056Z,8.30
2018-05-25T17:20:02.360Z,8.87
2018-05-25T17:22:30.696Z,8.27
2018-05-25T17:27:33.842Z,7.80
2018-05-25T17:30:02.160Z,7.23
2018-05-25T17:32:31.220Z,7.27
2018-05-25T17:34:59.527Z,7.50
2018-05-25T17:37:28.586Z,7.17
2018-05-25T17:39:56.965Z,7.10
2018-05-25T17:42:25.284Z,6.77
2018-05-25T17:44:54.341Z,7.17
2018-05-25T17:47:22.668Z,6.77
2018-05-25T17:49:51.048Z,6.87
2018-05-25T17:52:19.381Z,6.60
2018-05-25T17:54:47.861Z,6.57
2018-05-25T17:57:16.177Z,6.67
2018-05-25T17:59:45.258Z,6.30
2018-05-25T18:02:13.545Z,6.23
2018-05-25T18:04:42.632Z,6.60
2018-05-25T18:07:10.965Z,6.50
2018-05-25T18:09:39.263Z,6.43
2018-05-25T18:12:07.603Z,6.80
2018-05-25T18:14:35.886Z,6.37
2018-05-25T18:17:04.230Z,6.47
2018-05-25T18:19:33.285Z,7.00
2018-05-25T18:22:02.347Z,6.47
2018-05-25T18:24:30.661Z,6.83
2018-05-25T18:26:58.972Z,6.80
2018-05-25T18:29:28.009Z,7.00
2018-05-25T18:31:56.272Z,7.03
2018-05-25T18:34:24.630Z,7.57
2018-05-25T18:36:53.741Z,7.60
2018-05-25T18:39:22.015Z,7.00
2018-05-25T18:41:50.348Z,6.90
2018-05-25T18:44:19.624Z,7.37
2018-05-25T18:46:47.897Z,7.40
2018-05-25T18:49:16.228Z,7.00
2018-05-25T18:51:46.044Z,6.90
2018-05-25T18:54:32.045Z,7.37
2018-05-25T18:57:00.318Z,6.97
2018-05-25T18:59:29.395Z,7.30
2018-05-25T19:01:57.718Z,7.20
2018-05-25T19:04:26.041Z,7.00
2018-05-25T19:06:54.667Z,7.07
2018-05-25T19:09:23.017Z,7.37
2018-05-25T19:11:51.313Z,6.90
2018-05-25T19:14:19.617Z,7.40
2018-05-25T19:16:47.903Z,7.60
2018-05-25T19:21:50.012Z,8.37
2018-05-25T19:24:18.312Z,7.93
2018-05-25T19:26:47.433Z,7.73
2018-05-25T19:29:15.702Z,8.30
2018-05-25T19:31:44.742Z,7.40
2018-05-25T19:34:13.833Z,8.90
2018-05-25T19:36:42.173Z,7.97
2018-05-25T19:39:10.480Z,8.90
2018-05-25T19:41:38.804Z,8.10
2018-05-25T19:44:07.158Z,8.47
2018-05-25T19:46:35.456Z,9.83
2018-05-25T19:49:03.775Z,9.03
2018-05-25T19:51:32.107Z,16.47
2018-05-25T19:54:00.439Z,13.73
2018-05-25T19:56:28.775Z,10.17
2018-05-25T19:58:57.184Z,9.63
2018-05-25T20:01:25.481Z,9.43
2018-05-25T20:03:53.811Z,9.53
2018-05-25T20:06:22.161Z,9.47
2018-05-25T20:08:50.482Z,9.67
2018-05-25T20:11:19.614Z,8.80
2018-05-25T20:13:47.900Z,8.53
2018-05-25T20:16:16.287Z,8.13
2018-05-25T20:18:44.559Z,8.87
2018-05-25T20:21:12.926Z,9.10
2018-05-25T20:23:41.325Z,9.10
2018-05-25T20:26:09.636Z,9.10
2018-05-25T20:28:37.937Z,8.27
2018-05-25T20:31:06.388Z,9.80
2018-05-25T20:33:34.735Z,8.97
2018-05-25T20:36:03.067Z,9.53
2018-05-25T20:38:32.146Z,10.03
2018-05-25T20:41:00.898Z,9.60
2018-05-25T20:43:29.228Z,9.63
2018-05-25T20:45:57.667Z,9.83
2018-05-25T20:48:25.985Z,9.33
2018-05-25T20:50:55.067Z,11.60
2018-05-25T20:53:23.417Z,12.17
2018-05-25T20:55:51.709Z,11.90
2018-05-25T20:58:20.940Z,12.40
2018-05-25T21:00:49.254Z,12.10
2018-05-25T21:03:17.575Z,13.67
2018-05-25T21:05:45.893Z,11.00
2018-05-25T21:08:14.191Z,11.93
2018-05-25T21:10:42.522Z,12.50
2018-05-25T21:13:11.601Z,13.10
2018-05-25T21:15:39.930Z,11.97
2018-05-25T21:18:08.274Z,12.00
2018-05-25T21:20:37.341Z,12.40
2018-05-25T21:23:05.943Z,11.63
2018-05-25T21:25:34.996Z,12.70
2018-05-25T21:28:03.583Z,12.73
2018-05-25T21:30:31.906Z,12.07
2018-05-25T21:33:00.959Z,11.27
2018-05-25T21:35:29.253Z,10.67
2018-05-25T21:37:57.578Z,11.83
2018-05-25T21:40:25.885Z,11.40
2018-05-25T21:42:54.219Z,11.90
2018-05-25T21:45:23.273Z,14.27
2018-05-25T21:50:26.486Z,13.63
2018-05-25T21:52:54.821Z,13.63
2018-05-25T21:55:23.128Z,13.47
2018-05-25T21:57:51.450Z,13.80
2018-05-25T22:00:20.510Z,14.00
2018-05-25T22:02:48.912Z,13.37
2018-05-25T22:05:17.242Z,13.87
2018-05-25T22:07:45.570Z,16.63
2018-05-25T22:10:13.904Z,15.23
2018-05-25T22:12:42.249Z,14.73
2018-05-25T22:17:45.840Z,14.00
2018-05-25T22:20:15.104Z,14.50
2018-05-25T22:22:43.579Z,14.50
2018-05-25T22:25:12.081Z,14.50
2018-05-25T22:27:40.370Z,15.00
2018-05-25T22:30:08.846Z,15.77
2018-05-25T22:32:37.195Z,15.53
2018-05-25T22:35:05.489Z,15.20
2018-05-25T22:37:33.846Z,15.50
2018-05-25T22:40:02.194Z,15.77
2018-05-25T22:42:48.915Z,16.57
2018-05-25T22:45:35.054Z,16.60
2018-05-25T22:48:22.050Z,17.53
2018-05-25T22:51:08.073Z,16.03
2018-05-25T22:53:41.190Z,15.67
2018-05-25T22:56:09.492Z,16.07
2018-05-25T22:58:37.849Z,17.00
2018-05-25T23:01:09.045Z,17.27
2018-05-25T23:03:37.326Z,16.80
2018-05-25T23:06:05.630Z,16.60
2018-05-25T23:08:33.937Z,16.20
2018-05-25T23:11:03.046Z,15.43
2018-05-25T23:13:32.144Z,15.70
2018-05-25T23:16:00.438Z,16.23
2018-05-25T23:18:28.768Z,16.73
2018-05-25T23:20:57.072Z,15.93
2018-05-25T23:23:26.206Z,16.40
2018-05-25T23:25:54.519Z,16.57
2018-05-25T23:28:22.840Z,15.23
2018-05-25T23:30:51.148Z,15.47
2018-05-25T23:33:19.496Z,16.53
2018-05-25T23:35:47.828Z,16.00
2018-05-25T23:38:16.655Z,16.60
2018-05-25T23:40:44.957Z,16.97
2018-05-25T23:43:13.285Z,19.37
2018-05-25T23:45:42.376Z,19.20
2018-05-25T23:48:10.678Z,18.87
2018-05-25T23:50:38.964Z,18.13
2018-05-25T23:53:07.260Z,17.63
2018-05-25T23:55:35.586Z,16.97
2018-05-25T23:58:03.920Z,16.73
